Pagina principale
METAR-TAF:

METAR-TAF

Aeroporti :

Cagliari, Italia

Aeroporto di Cagliari-Elmas

latitudine: 39-15N, longitudine: 009-04E, altezza: 4 m

Osservazione

Il bollettino è stato emesso 44 minuti fa, alle 00:20 UTC
Vento 16 kt da ovest
Temperature 14°C
Umidità 72%
Pressione 1017 hPa
Visibilità 10 km o più
nessuna nube inferiore a 1500 m e nessun cumulonembo

METAR: LIEE 170020Z 27016KT CAVOK 14/09 Q1017

Ora: 02:04 (01:04 UTC)

Previsione

Il bollettino è stato emesso 2 ore e 4 minuti fa, alle 23:00 UTC
Previsione valida dal 17 alle 00 UTC al 17 alle 24 UTC
Vento 15 kt da ovest/nord-ovest con raffiche fino a 25 kt
Visibilità 10 km o più
Nubi sparse ad un'altezza di 3000 ft

TAF: LIEE 162300Z 1700/1724 30015G25KT 9999 SCT030

Osservazioni e previsioni meteorologiche di più di 4000 aeroporti (messaggi METAR e TAF).

Le stazioni disponibili sono rappresentate dai dischi gialli e rossi sulla carta.

Puntare il mouse per vedere il nome della stazione.

Clicca sopra per visualizzare le osservazioni e previsioni meteorologiche.

Per cambiare la mappa : fare clic sui pulsanti verdi con una croce nera per ingrandire, il pulsante verde con un trattino per diminuire, o sulla freccia verde per le mappe adiacenti.


METAR-TAF: